Terminal Aerodrome Forecast
Issued by NWS

Home | Current Version | Previous Version | Text Only | Print | Product List | Glossary On
Versions: 1 2 3 4 5 6 7 8 9 10 11 12 13 14 15 16 17
000
FTUS43 KPAH 032331
TAFCGI
TAF
KCGI 032331Z 0400/0424 09004KT P6SM SCT030 OVC070
      TEMPO 0400/0404 -RA
     FM040400 07005KT 4SM -RA BR SCT010 OVC030
     FM040800 07006KT 3SM BR SCT010 OVC030
      TEMPO 0410/0414 OVC010
     FM041400 VRB04KT 5SM BR BKN015
     FM041800 21005KT P6SM VCSH BKN020
     FM042200 30006KT P6SM SCT025 BKN050=

USA.gov is the U.S. government's official web portal to all federal, state and local government web resources and services.